Time;durP1;ratioP1;P1;durP2;ratioP2;P2;SDS_P1;SDS_P2;PMS_P1;PMS_P2;Temp;Humidity;BMP_temperature;BMP_pressure;BME280_temperature;BME280_humidity;BME280_pressure;Samples;Min_cycle;Max_cycle;Signal;HPM_P1;HPM_P2
2021/10/24 00:01:51;;;;;;;13.70;9.38;;;2.70;99.90;;;;;;5090251;28;20070;-75
2021/10/24 00:04:23;;;;;;;15.25;9.40;;;2.70;99.90;;;;;;5089774;28;20044;-75
2021/10/24 00:06:55;;;;;;;22.48;9.48;;;2.70;99.90;;;;;;5090177;28;20070;-75
2021/10/24 00:09:27;;;;;;;14.05;7.80;;;2.70;99.90;;;;;;5090313;28;20464;-75
2021/10/24 00:11:59;;;;;;;13.35;7.75;;;2.70;99.90;;;;;;5090249;28;20418;-75
2021/10/24 00:14:30;;;;;;;8.90;6.82;;;2.70;99.90;;;;;;5089806;28;20044;-75
2021/10/24 00:16:57;;;;;;;10.40;7.68;;;2.70;99.90;;;;;;5090041;28;20048;-75
2021/10/24 00:19:29;;;;;;;11.55;7.03;;;2.70;99.90;;;;;;5091370;28;20040;-74
2021/10/24 00:22:02;;;;;;;8.23;6.07;;;2.60;99.90;;;;;;5089990;28;20040;-75
2021/10/24 00:24:34;;;;;;;7.23;4.43;;;2.60;99.90;;;;;;5089490;28;20206;-74
2021/10/24 00:27:01;;;;;;;12.00;5.80;;;2.60;99.90;;;;;;5091151;28;20809;-75
2021/10/24 00:29:33;;;;;;;11.70;5.72;;;2.50;99.90;;;;;;5089842;28;20456;-75
2021/10/24 00:31:59;;;;;;;7.15;4.82;;;2.50;99.90;;;;;;5089579;28;20052;-75
2021/10/24 00:34:32;;;;;;;10.80;5.60;;;2.50;99.90;;;;;;5089232;28;20502;-75
2021/10/24 00:37:04;;;;;;;7.00;5.40;;;2.50;99.90;;;;;;5089716;28;20051;-75
2021/10/24 00:39:35;;;;;;;10.10;5.80;;;2.50;99.90;;;;;;5104818;28;20059;-74
2021/10/24 00:42:03;;;;;;;6.95;4.35;;;2.50;99.90;;;;;;5111817;28;20490;-75
2021/10/24 00:44:35;;;;;;;9.45;5.20;;;2.50;99.90;;;;;;5109954;28;20550;-75
2021/10/24 00:47:05;;;;;;;8.48;4.93;;;2.50;99.90;;;;;;5110568;28;20036;-75
2021/10/24 00:49:32;;;;;;;9.05;4.80;;;2.50;99.90;;;;;;5111826;28;20036;-75
2021/10/24 00:52:00;;;;;;;7.03;4.47;;;2.50;99.90;;;;;;5112071;27;20525;-74
2021/10/24 00:54:28;;;;;;;6.82;4.10;;;2.40;99.90;;;;;;5109378;28;20674;-75
2021/10/24 00:56:56;;;;;;;7.15;4.45;;;2.40;99.90;;;;;;5110405;28;20325;-75
2021/10/24 00:59:28;;;;;;;7.90;5.37;;;2.40;99.90;;;;;;5110288;28;20382;-75
2021/10/24 01:02:00;;;;;;;7.07;4.63;;;2.40;99.90;;;;;;5109873;28;20717;-75
2021/10/24 01:04:32;;;;;;;7.72;4.82;;;2.40;99.90;;;;;;5093758;28;20050;-75
2021/10/24 01:07:04;;;;;;;6.90;4.13;;;2.40;99.90;;;;;;5110047;28;20100;-75
2021/10/24 01:09:36;;;;;;;8.95;4.60;;;2.40;99.90;;;;;;5093613;28;20104;-75
2021/10/24 01:12:03;;;;;;;9.90;5.05;;;2.40;99.90;;;;;;5109956;28;20515;-75
2021/10/24 01:14:38;;;;;;;7.63;4.82;;;2.40;99.90;;;;;;5111400;28;20401;-75
2021/10/24 01:17:10;;;;;;;7.78;4.88;;;2.40;99.90;;;;;;5110141;28;20528;-75
2021/10/24 01:19:37;;;;;;;7.90;4.82;;;2.40;99.90;;;;;;5109959;28;20059;-75
2021/10/24 01:22:09;;;;;;;7.78;4.82;;;2.40;99.90;;;;;;5094220;28;20396;-74
2021/10/24 01:24:36;;;;;;;8.07;4.47;;;2.40;99.90;;;;;;5092901;28;20035;-75
2021/10/24 01:27:08;;;;;;;8.27;4.63;;;2.40;99.90;;;;;;5109943;28;20048;-74
2021/10/24 01:29:40;;;;;;;6.07;4.43;;;2.30;99.90;;;;;;5110028;28;20039;-75
2021/10/24 01:32:13;;;;;;;5.85;4.38;;;2.30;99.90;;;;;;5110017;28;20040;-74
2021/10/24 01:34:46;;;;;;;9.32;4.30;;;2.30;99.90;;;;;;5109752;28;20054;-75
2021/10/24 01:37:19;;;;;;;6.03;4.30;;;2.30;99.90;;;;;;5094239;28;20055;-75
2021/10/24 01:39:46;;;;;;;10.02;4.70;;;2.30;99.90;;;;;;5093547;28;20044;-75
2021/10/24 01:42:18;;;;;;;7.40;4.70;;;2.20;99.90;;;;;;5110290;28;20387;-75
2021/10/24 01:44:49;;;;;;;7.80;5.07;;;2.20;99.90;;;;;;5110083;28;20077;-74
2021/10/24 01:47:22;;;;;;;6.15;4.30;;;2.20;99.90;;;;;;5110404;28;20132;-75
2021/10/24 01:49:49;;;;;;;6.65;4.38;;;2.10;99.90;;;;;;5110238;28;20506;-75
2021/10/24 01:52:21;;;;;;;7.78;5.18;;;2.10;99.90;;;;;;5110409;28;20039;-75
2021/10/24 01:54:48;;;;;;;7.45;4.20;;;2.10;99.90;;;;;;5093224;28;20050;-74
2021/10/24 01:57:22;;;;;;;8.13;4.68;;;2.00;99.90;;;;;;5094510;28;20047;-75
2021/10/24 01:59:54;;;;;;;6.68;4.10;;;2.00;99.90;;;;;;5110294;28;20059;-75
2021/10/24 02:02:51;;;;;;;6.82;4.25;;;2.00;99.90;;;;;;5110490;28;20401;-75
2021/10/24 02:05:33;;;;;;;7.93;3.88;;;2.00;99.90;;;;;;5109784;28;20043;-75
2021/10/24 02:08:06;;;;;;;7.57;4.18;;;2.00;99.90;;;;;;5110328;28;20036;-75
2021/10/24 02:10:35;;;;;;;6.93;3.85;;;1.90;99.90;;;;;;5109973;28;20513;-75
2021/10/24 02:13:10;;;;;;;5.85;4.10;;;1.90;99.90;;;;;;5112124;28;20130;-74
2021/10/24 02:15:38;;;;;;;5.03;3.85;;;1.90;99.90;;;;;;5113602;28;20039;-75
2021/10/24 02:18:11;;;;;;;8.43;4.10;;;1.90;99.90;;;;;;5113751;28;20071;-75
2021/10/24 02:20:45;;;;;;;6.90;4.80;;;1.90;99.90;;;;;;5097786;28;20043;-75
2021/10/24 02:23:12;;;;;;;7.70;3.65;;;1.80;99.90;;;;;;5114767;28;20143;-75
2021/10/24 02:25:46;;;;;;;7.25;4.22;;;1.80;99.90;;;;;;5113573;28;20044;-75
2021/10/24 02:28:20;;;;;;;;;;;1.80;99.90;;;;;;5113981;28;20501;-74
2021/10/24 02:30:52;;;;;;;7.63;4.40;;;1.80;99.90;;;;;;5113700;28;19926;-74
2021/10/24 02:33:37;;;;;;;6.47;3.92;;;1.80;99.90;;;;;;5113819;28;20050;-74
2021/10/24 02:36:16;;;;;;;5.15;3.47;;;1.80;99.90;;;;;;5098161;28;20043;-73
2021/10/24 02:38:54;;;;;;;7.72;4.95;;;1.80;99.90;;;;;;5113655;28;20416;-75
2021/10/24 02:41:21;;;;;;;6.90;4.38;;;1.80;99.90;;;;;;5113434;28;20090;-75
2021/10/24 02:43:58;;;;;;;6.75;4.13;;;1.80;99.90;;;;;;5114354;28;20039;-75
2021/10/24 02:46:35;;;;;;;7.25;4.38;;;1.70;99.90;;;;;;5113094;28;20505;-75
2021/10/24 02:49:09;;;;;;;8.35;4.60;;;1.70;99.90;;;;;;5113019;28;20132;-75
2021/10/24 02:51:45;;;;;;;9.48;3.92;;;1.70;99.90;;;;;;5097623;28;20097;-74
2021/10/24 02:54:18;;;;;;;9.90;4.72;;;1.70;99.90;;;;;;5113933;28;20089;-75
2021/10/24 02:56:52;;;;;;;8.25;4.50;;;1.70;99.90;;;;;;5113119;28;20040;-75
2021/10/24 02:59:20;;;;;;;8.25;4.32;;;1.60;99.90;;;;;;5113014;28;20491;-75
2021/10/24 03:01:52;;;;;;;6.63;4.45;;;1.60;99.90;;;;;;5113016;28;20394;-74
2021/10/24 03:04:19;;;;;;;7.18;4.28;;;1.60;99.90;;;;;;5112520;28;20054;-75
2021/10/24 03:06:51;;;;;;;5.90;4.65;;;1.60;99.90;;;;;;5114659;28;20640;-75
2021/10/24 03:09:23;;;;;;;9.18;4.30;;;1.60;99.90;;;;;;5112852;28;20039;-75
2021/10/24 03:11:50;;;;;;;12.60;4.38;;;1.50;99.90;;;;;;5112604;28;20109;-75
2021/10/24 03:14:22;;;;;;;9.40;5.32;;;1.50;99.90;;;;;;5096245;28;20035;-74
2021/10/24 03:16:50;;;;;;;5.82;3.78;;;1.50;99.90;;;;;;5112698;28;20527;-74
2021/10/24 03:19:18;;;;;;;8.82;4.80;;;1.50;99.90;;;;;;5112360;28;20043;-74
2021/10/24 03:21:50;;;;;;;9.27;4.47;;;1.50;99.90;;;;;;5112575;28;20051;-74
2021/10/24 03:24:23;;;;;;;7.40;4.28;;;1.50;99.90;;;;;;5112274;28;20198;-75
2021/10/24 03:26:50;;;;;;;7.70;4.18;;;1.50;99.90;;;;;;5112688;28;20097;-75
2021/10/24 03:29:17;;;;;;;9.23;4.78;;;1.50;99.90;;;;;;5112448;28;20532;-74
2021/10/24 03:31:49;;;;;;;6.43;3.75;;;1.40;99.90;;;;;;5112283;28;20039;-75
2021/10/24 03:34:16;;;;;;;9.63;4.93;;;1.40;99.90;;;;;;5095114;28;20051;-75
2021/10/24 03:36:49;;;;;;;7.65;5.05;;;1.40;99.90;;;;;;5112309;28;20217;-74
2021/10/24 03:39:21;;;;;;;6.82;4.20;;;1.40;99.90;;;;;;5096055;28;20055;-75
2021/10/24 03:41:54;;;;;;;5.45;3.50;;;1.30;99.90;;;;;;5112042;28;20035;-75
2021/10/24 03:44:22;;;;;;;9.93;4.10;;;1.40;99.90;;;;;;5111655;28;20063;-74
2021/10/24 03:46:49;;;;;;;7.35;3.30;;;1.40;99.90;;;;;;5112107;28;20043;-74
2021/10/24 03:49:21;;;;;;;9.15;5.10;;;1.30;99.90;;;;;;5111943;28;20065;-74
2021/10/24 03:51:53;;;;;;;8.02;4.18;;;1.30;99.90;;;;;;5112004;28;20043;-75
2021/10/24 03:54:21;;;;;;;9.82;3.90;;;1.30;99.90;;;;;;5111690;28;20060;-75
2021/10/24 03:56:48;;;;;;;6.43;4.40;;;1.30;99.90;;;;;;5111755;28;20121;-74
2021/10/24 03:59:15;;;;;;;7.57;3.63;;;1.30;99.90;;;;;;5111699;28;20497;-74
2021/10/24 04:01:47;;;;;;;6.03;4.35;;;1.20;99.90;;;;;;5112037;28;20140;-74
2021/10/24 04:04:19;;;;;;;8.13;4.03;;;1.20;99.90;;;;;;5111251;28;20047;-75
2021/10/24 04:06:46;;;;;;;7.70;3.40;;;1.20;99.90;;;;;;5111743;28;20061;-74
2021/10/24 04:09:19;;;;;;;6.25;3.80;;;1.20;99.90;;;;;;5111429;28;20047;-75
2021/10/24 04:11:47;;;;;;;7.03;3.63;;;1.20;99.90;;;;;;5112790;28;20106;-74
2021/10/24 04:14:19;;;;;;;6.43;3.80;;;1.20;99.90;;;;;;5095007;28;20043;-75
2021/10/24 04:16:51;;;;;;;6.95;3.97;;;1.20;99.90;;;;;;5111397;28;20063;-74
2021/10/24 04:19:25;;;;;;;8.35;4.05;;;1.10;99.90;;;;;;5111393;28;20047;-74
2021/10/24 04:21:55;;;;;;;6.20;3.70;;;1.10;99.90;;;;;;5111221;28;20154;-75
2021/10/24 04:24:28;;;;;;;4.65;3.38;;;1.10;99.90;;;;;;5094938;28;20067;-75
2021/10/24 04:27:01;;;;;;;5.28;3.38;;;1.10;99.90;;;;;;5111336;28;20039;-74
2021/10/24 04:29:28;;;;;;;5.57;3.90;;;1.10;99.90;;;;;;5094376;28;20050;-75
2021/10/24 04:32:02;;;;;;;4.55;3.20;;;1.10;99.90;;;;;;5095132;28;20039;-75
2021/10/24 04:34:34;;;;;;;7.95;4.60;;;1.10;99.90;;;;;;5094689;28;20043;-74
2021/10/24 04:37:00;;;;;;;5.55;3.58;;;1.10;99.90;;;;;;5111258;28;20425;-75
2021/10/24 04:39:28;;;;;;;6.28;3.97;;;1.10;99.90;;;;;;5094478;28;20063;-75
2021/10/24 04:41:55;;;;;;;5.32;3.40;;;1.10;99.90;;;;;;5094138;28;20055;-75
2021/10/24 04:44:27;;;;;;;6.70;3.38;;;1.10;99.90;;;;;;5110852;28;20126;-75
2021/10/24 04:46:54;;;;;;;5.07;3.55;;;1.10;99.90;;;;;;5111011;28;20122;-75
2021/10/24 04:49:26;;;;;;;7.85;4.60;;;1.10;99.90;;;;;;5110943;28;20127;-74
2021/10/24 04:51:59;;;;;;;7.63;3.38;;;1.10;99.90;;;;;;5110918;28;20039;-75
2021/10/24 04:54:31;;;;;;;9.07;4.05;;;1.00;99.90;;;;;;5110503;28;20495;-74
2021/10/24 04:57:04;;;;;;;6.32;4.07;;;1.00;99.90;;;;;;5094866;28;20094;-74
2021/10/24 04:59:32;;;;;;;7.40;4.07;;;1.00;99.90;;;;;;5110727;28;20044;-75
2021/10/24 05:02:05;;;;;;;6.10;3.73;;;1.00;99.90;;;;;;5110730;28;20043;-74
2021/10/24 05:04:38;;;;;;;7.15;3.78;;;1.00;99.90;;;;;;5094080;28;20290;-75
2021/10/24 05:07:05;;;;;;;7.53;4.07;;;1.00;99.90;;;;;;5110888;28;20089;-74
2021/10/24 05:09:37;;;;;;;6.88;3.90;;;1.00;99.90;;;;;;5110615;28;20044;-75
2021/10/24 05:12:09;;;;;;;7.07;4.43;;;1.00;99.90;;;;;;5110644;28;20050;-74
2021/10/24 05:14:41;;;;;;;7.47;4.43;;;1.00;99.90;;;;;;5110305;28;20043;-75
2021/10/24 05:17:08;;;;;;;8.40;4.35;;;1.00;99.90;;;;;;5110717;28;20130;-78
2021/10/24 05:19:35;;;;;;;7.28;4.10;;;1.00;99.90;;;;;;5099512;28;20108;-75
2021/10/24 05:22:07;;;;;;;6.47;3.85;;;1.00;99.90;;;;;;5096627;28;20101;-75
2021/10/24 05:24:34;;;;;;;5.97;4.40;;;1.00;99.90;;;;;;5098252;28;20040;-75
2021/10/24 05:27:06;;;;;;;8.63;4.47;;;1.00;99.90;;;;;;5083198;28;20382;-75
2021/10/24 05:29:38;;;;;;;7.15;3.97;;;0.90;99.90;;;;;;5100386;28;20044;-74
2021/10/24 05:32:09;;;;;;;6.95;4.47;;;0.90;99.90;;;;;;5109612;28;20063;-75
2021/10/24 05:34:42;;;;;;;5.45;3.67;;;0.90;99.90;;;;;;5109333;28;20047;-74
2021/10/24 05:37:19;;;;;;;11.20;4.63;;;0.80;99.90;;;;;;5109800;28;20047;-75
2021/10/24 05:39:46;;;;;;;6.32;3.80;;;0.90;99.90;;;;;;5109887;28;20048;-75
2021/10/24 05:42:50;;;;;;;6.93;4.30;;;0.80;99.90;;;;;;5096505;28;20579;-74
2021/10/24 05:45:23;;;;;;;6.57;4.70;;;0.80;99.90;;;;;;5110394;28;20043;-75
2021/10/24 05:47:55;;;;;;;6.10;4.28;;;0.80;99.90;;;;;;5111629;28;20111;-74
2021/10/24 05:50:39;;;;;;;8.43;4.53;;;0.80;99.90;;;;;;5099209;28;20457;-75
2021/10/24 05:53:07;;;;;;;5.32;3.92;;;0.80;99.90;;;;;;5113553;28;20067;-75
2021/10/24 05:55:39;;;;;;;8.15;4.30;;;0.80;99.90;;;;;;5096931;28;20040;-74
2021/10/24 05:58:11;;;;;;;8.63;4.55;;;0.70;99.90;;;;;;5113454;28;20552;-75
2021/10/24 06:01:05;;;;;;;;;;;0.70;99.90;;;;;;5114047;28;20048;-75
2021/10/24 06:04:16;;;;;;;8.00;4.75;;;0.70;99.90;;;;;;5071755;28;20289;-75
2021/10/24 06:07:06;;;;;;;10.30;4.97;;;0.70;99.90;;;;;;5108208;27;20049;-74
2021/10/24 06:10:01;;;;;;;7.35;4.80;;;0.70;99.90;;;;;;5120486;27;20383;-75
2021/10/24 06:15:01;;;;;;;7.57;5.18;;;0.70;99.90;;;;;;5112769;27;20040;-75
2021/10/24 06:17:29;;;;;;;9.38;5.40;;;0.70;99.90;;;;;;5097296;27;20079;-74
2021/10/24 06:19:56;;;;;;;8.85;5.70;;;0.80;99.90;;;;;;5093177;28;20044;-75
2021/10/24 06:22:23;;;;;;;9.98;5.60;;;0.70;99.90;;;;;;5116161;27;20070;-75
2021/10/24 06:24:50;;;;;;;13.10;6.28;;;0.80;99.90;;;;;;5099941;27;20047;-74
2021/10/24 06:27:25;;;;;;;8.90;6.03;;;0.80;99.90;;;;;;5123230;27;20043;-74
2021/10/24 06:29:57;;;;;;;8.35;6.00;;;0.80;99.90;;;;;;5096525;28;20036;-75
2021/10/24 06:32:44;;;;;;;9.60;5.97;;;0.80;99.90;;;;;;5099773;28;20074;-75
2021/10/24 06:35:39;;;;;;;9.20;6.05;;;0.80;99.90;;;;;;5090001;28;20055;-73
2021/10/24 06:38:24;;;;;;;11.73;6.55;;;0.90;99.90;;;;;;5114642;27;20055;-75
2021/10/24 06:40:58;;;;;;;8.02;5.18;;;0.90;99.90;;;;;;5127537;27;20637;-75
2021/10/24 06:43:25;;;;;;;11.07;6.40;;;0.90;99.90;;;;;;5113072;27;20042;-75
2021/10/24 06:46:11;;;;;;;9.02;5.53;;;0.90;99.90;;;;;;5121864;27;20054;-74
2021/10/24 06:49:02;;;;;;;9.98;5.43;;;1.00;99.90;;;;;;5118173;27;20047;-75
2021/10/24 06:51:44;;;;;;;6.17;4.93;;;1.00;99.90;;;;;;5110977;28;20093;-75
2021/10/24 06:54:34;;;;;;;9.25;6.38;;;1.00;99.90;;;;;;5092789;28;20511;-75
2021/10/24 06:57:24;;;;;;;9.27;6.32;;;1.10;99.90;;;;;;5112009;28;20046;-74
2021/10/24 07:00:20;;;;;;;8.38;6.38;;;1.10;99.90;;;;;;5111543;28;20100;-74
2021/10/24 07:03:11;;;;;;;10.93;6.25;;;1.10;99.90;;;;;;5111837;28;20043;-74
2021/10/24 07:05:57;;;;;;;10.05;6.15;;;1.20;99.90;;;;;;5115941;28;20051;-74
2021/10/24 07:08:31;;;;;;;9.43;6.20;;;1.20;99.90;;;;;;5111719;28;20043;-74
2021/10/24 07:11:03;;;;;;;9.43;6.18;;;1.20;99.90;;;;;;5095757;28;20047;-74
2021/10/24 07:13:35;;;;;;;9.98;7.50;;;1.30;99.90;;;;;;5110998;28;20039;-74
2021/10/24 07:16:07;;;;;;;12.10;8.32;;;1.40;99.90;;;;;;5111180;28;20574;-74
2021/10/24 07:18:39;;;;;;;15.02;9.38;;;1.40;99.90;;;;;;5111320;28;20047;-75
2021/10/24 07:21:12;;;;;;;18.45;11.45;;;1.50;99.90;;;;;;5108769;28;20063;-75
2021/10/24 07:23:44;;;;;;;42.13;21.10;;;1.50;99.90;;;;;;5110056;28;20161;-75
2021/10/24 07:26:18;;;;;;;29.80;14.32;;;1.60;99.90;;;;;;5096562;27;20044;-74
2021/10/24 07:28:45;;;;;;;22.58;11.98;;;1.60;99.90;;;;;;5108759;28;20042;-73
2021/10/24 07:31:17;;;;;;;17.23;9.98;;;1.70;99.90;;;;;;5111307;28;20044;-73
2021/10/24 07:33:53;;;;;;;52.25;32.60;;;1.70;99.90;;;;;;5111319;28;20096;-73
2021/10/24 07:36:32;;;;;;;36.30;23.63;;;1.80;99.90;;;;;;5110078;28;20070;-74
2021/10/24 07:39:05;;;;;;;19.67;12.27;;;2.00;99.90;;;;;;5109495;28;20139;-75
2021/10/24 07:41:37;;;;;;;17.23;10.15;;;2.10;99.90;;;;;;5105555;28;20218;-75
2021/10/24 07:44:11;;;;;;;15.30;8.98;;;2.10;99.90;;;;;;5093695;28;20052;-75
2021/10/24 07:46:44;;;;;;;17.25;9.27;;;2.20;99.90;;;;;;5108280;28;20050;-75
2021/10/24 07:49:16;;;;;;;18.80;9.25;;;2.20;99.90;;;;;;5102998;28;20126;-75
2021/10/24 07:51:48;;;;;;;17.13;10.15;;;2.20;99.90;;;;;;5091421;28;20036;-74
2021/10/24 07:54:21;;;;;;;13.68;9.02;;;2.20;99.90;;;;;;5110051;28;20411;-74
2021/10/24 07:56:53;;;;;;;12.90;8.57;;;2.30;99.90;;;;;;5109331;28;20051;-74
2021/10/24 07:59:30;;;;;;;15.23;9.32;;;2.50;99.90;;;;;;5111989;28;20084;-74
2021/10/24 08:01:59;;;;;;;12.63;9.07;;;2.60;99.90;;;;;;5094458;28;20097;-74
2021/10/24 08:04:35;;;;;;;14.60;8.60;;;2.60;99.90;;;;;;5094355;28;20039;-74
2021/10/24 08:07:04;;;;;;;15.00;8.90;;;2.70;99.90;;;;;;5094470;28;20075;-74
2021/10/24 08:09:31;;;;;;;12.13;8.10;;;2.80;99.90;;;;;;5093677;28;20039;-74
2021/10/24 08:12:03;;;;;;;13.73;10.07;;;2.90;99.90;;;;;;5110755;28;20401;-75
2021/10/24 08:14:36;;;;;;;15.85;9.25;;;3.10;99.90;;;;;;5094377;28;20036;-75
2021/10/24 08:17:08;;;;;;;19.35;9.52;;;3.10;99.90;;;;;;5110873;28;20040;-74
2021/10/24 08:19:53;;;;;;;14.60;8.35;;;3.20;99.90;;;;;;5096399;28;20050;-74
2021/10/24 08:22:19;;;;;;;15.55;8.80;;;3.30;99.90;;;;;;5110909;28;20147;-74
2021/10/24 08:24:51;;;;;;;13.18;8.05;;;3.30;99.90;;;;;;5110310;28;20096;-74
2021/10/24 08:27:30;;;;;;;13.85;8.50;;;3.30;99.90;;;;;;5110650;28;20092;-74
2021/10/24 08:30:25;;;;;;;18.52;9.15;;;3.40;99.90;;;;;;5110873;28;20065;-74
2021/10/24 08:33:16;;;;;;;13.90;8.93;;;3.50;99.90;;;;;;5110633;28;20454;-74
2021/10/24 08:35:42;;;;;;;11.43;7.53;;;3.60;99.90;;;;;;5111119;28;20453;-74
2021/10/24 08:38:14;;;;;;;12.07;8.57;;;3.70;99.90;;;;;;5109869;28;20043;-74
2021/10/24 08:40:45;;;;;;;12.68;8.90;;;3.80;99.90;;;;;;5109618;28;20504;-74
2021/10/24 08:43:26;;;;;;;12.63;8.70;;;3.90;99.90;;;;;;5111046;28;20103;-74
2021/10/24 08:45:58;;;;;;;12.63;8.93;;;4.00;99.90;;;;;;5110851;28;20590;-73
2021/10/24 08:48:33;;;;;;;14.07;8.85;;;4.10;99.90;;;;;;5109871;28;20134;-73
2021/10/24 08:51:02;;;;;;;15.40;8.88;;;4.20;99.90;;;;;;5111154;28;20123;-74
2021/10/24 08:53:35;;;;;;;14.10;10.48;;;4.30;99.90;;;;;;5111163;28;20043;-74
2021/10/24 08:56:21;;;;;;;15.18;9.50;;;4.40;99.90;;;;;;5093253;28;20482;-74
2021/10/24 08:58:53;;;;;;;12.38;9.10;;;4.40;99.90;;;;;;5109882;28;20122;-74
2021/10/24 09:01:25;;;;;;;13.95;9.13;;;4.60;99.90;;;;;;5110870;28;20399;-74
2021/10/24 09:04:04;;;;;;;16.95;10.07;;;4.70;99.90;;;;;;5093225;28;20074;-74
2021/10/24 09:06:48;;;;;;;11.55;10.02;;;4.70;99.90;;;;;;5109464;28;20138;-74
2021/10/24 09:09:21;;;;;;;12.85;9.07;;;4.80;99.90;;;;;;5109430;28;20043;-74
2021/10/24 09:12:14;;;;;;;11.07;8.82;;;4.90;99.90;;;;;;5093138;28;20054;-74
2021/10/24 09:14:50;;;;;;;16.60;10.73;;;5.00;99.90;;;;;;5108941;28;20043;-74
2021/10/24 09:17:26;;;;;;;13.15;9.13;;;5.10;99.90;;;;;;5110642;28;20085;-74
2021/10/24 09:19:57;;;;;;;14.00;8.57;;;5.20;99.90;;;;;;5109502;28;20760;-74
2021/10/24 09:22:36;;;;;;;12.75;9.05;;;5.30;99.90;;;;;;5113437;28;20552;-74
2021/10/24 09:25:17;;;;;;;13.40;8.85;;;5.40;99.90;;;;;;5096856;28;20104;-74
2021/10/24 09:27:55;;;;;;;18.27;9.77;;;5.60;99.90;;;;;;5113462;28;20056;-74
2021/10/24 09:30:35;;;;;;;12.32;8.57;;;5.70;99.90;;;;;;5113587;28;20071;-74
2021/10/24 09:33:10;;;;;;;14.80;10.13;;;5.70;99.90;;;;;;5114005;28;20062;-74
2021/10/24 09:35:43;;;;;;;11.23;8.85;;;5.90;99.90;;;;;;5113962;28;20111;-73
2021/10/24 09:38:23;;;;;;;12.15;8.07;;;6.00;99.90;;;;;;5114922;28;20051;-74
2021/10/24 09:41:15;;;;;;;12.95;8.25;;;6.10;99.90;;;;;;5111323;28;20039;-74
2021/10/24 09:43:43;;;;;;;10.65;8.43;;;6.20;99.90;;;;;;5113271;28;20573;-74
2021/10/24 09:46:15;;;;;;;13.85;9.90;;;6.30;99.90;;;;;;5113599;28;20043;-74
2021/10/24 09:48:53;;;;;;;11.80;8.85;;;6.40;99.90;;;;;;5097323;28;20589;-74
2021/10/24 09:51:19;;;;;;;12.55;8.55;;;6.50;99.90;;;;;;5115567;28;20050;-74
2021/10/24 09:53:56;;;;;;;10.10;8.48;;;6.50;99.90;;;;;;5097112;28;20036;-74
2021/10/24 09:56:26;;;;;;;12.10;7.60;;;6.60;99.90;;;;;;5113478;28;20119;-74
2021/10/24 09:58:59;;;;;;;10.07;7.70;;;6.70;99.90;;;;;;5113646;28;20127;-74
2021/10/24 10:01:31;;;;;;;15.83;7.73;;;6.70;99.90;;;;;;5113661;28;20138;-74
2021/10/24 10:04:03;;;;;;;10.50;8.07;;;6.80;99.90;;;;;;5096862;28;20772;-75
2021/10/24 10:06:35;;;;;;;11.00;8.20;;;6.80;99.90;;;;;;5095589;28;20043;-74
2021/10/24 10:09:07;;;;;;;8.80;7.72;;;6.90;99.90;;;;;;5114347;28;20043;-74
2021/10/24 10:11:54;;;;;;;12.40;8.68;;;7.00;99.90;;;;;;5113042;28;20054;-74
2021/10/24 10:14:29;;;;;;;11.98;8.07;;;7.10;99.90;;;;;;5112860;28;20035;-74
2021/10/24 10:17:08;;;;;;;11.93;8.10;;;7.20;99.90;;;;;;5114174;28;20409;-73
2021/10/24 10:19:37;;;;;;;11.32;9.02;;;7.30;99.90;;;;;;5113269;28;20100;-74
2021/10/24 10:22:27;;;;;;;12.18;7.65;;;7.40;99.90;;;;;;5113075;28;20046;-74
2021/10/24 10:25:05;;;;;;;12.88;8.93;;;7.40;99.90;;;;;;5112630;28;20044;-74
2021/10/24 10:27:40;;;;;;;10.48;7.15;;;7.50;99.90;;;;;;5112999;28;20038;-74
2021/10/24 10:30:28;;;;;;;13.63;7.72;;;7.60;99.90;;;;;;5114256;28;20043;-74
2021/10/24 10:33:04;;;;;;;9.80;7.00;;;7.70;99.90;;;;;;5112081;28;20043;-74
2021/10/24 10:35:51;;;;;;;11.05;7.43;;;7.80;99.90;;;;;;5112499;28;20043;-74
2021/10/24 10:38:43;;;;;;;10.40;6.60;;;7.90;99.90;;;;;;5114218;28;20039;-74
2021/10/24 10:41:15;;;;;;;9.85;6.63;;;8.00;99.90;;;;;;5114245;28;20043;-74
2021/10/24 10:44:06;;;;;;;9.70;7.28;;;8.00;99.90;;;;;;5114098;28;20040;-74
2021/10/24 10:46:38;;;;;;;8.13;6.30;;;8.10;99.90;;;;;;5112884;28;20054;-74
2021/10/24 10:49:36;;;;;;;9.75;6.63;;;8.20;99.90;;;;;;5112885;28;20106;-74
2021/10/24 10:52:38;;;;;;;8.63;6.95;;;8.30;99.90;;;;;;5109149;28;20122;-74
2021/10/24 10:55:05;;;;;;;10.63;7.30;;;8.40;99.90;;;;;;5113515;28;20039;-74
2021/10/24 10:57:37;;;;;;;9.88;7.15;;;8.60;99.90;;;;;;5113796;28;20042;-74
2021/10/24 11:00:54;;;;;;;10.25;7.03;;;8.60;99.90;;;;;;5113857;28;20058;-74
2021/10/24 11:03:44;;;;;;;13.40;9.10;;;8.70;99.90;;;;;;5014382;28;20140;-74
2021/10/24 11:06:28;;;;;;;9.25;7.25;;;8.80;99.90;;;;;;5112132;28;20043;-74
2021/10/24 11:09:04;;;;;;;13.32;7.63;;;8.90;99.90;;;;;;5112182;28;20040;-74
2021/10/24 11:11:43;;;;;;;11.98;6.57;;;9.00;99.90;;;;;;5110809;28;20031;-74
2021/10/24 11:14:15;;;;;;;12.65;7.95;;;9.10;99.90;;;;;;5112905;28;20059;-74
2021/10/24 11:16:54;;;;;;;15.02;9.27;;;9.20;99.90;;;;;;5113393;27;20070;-74
2021/10/24 11:19:29;;;;;;;10.40;6.88;;;9.20;99.90;;;;;;5112016;28;20035;-74
2021/10/24 11:22:16;;;;;;;11.80;8.32;;;9.30;99.90;;;;;;5111924;28;20054;-74
2021/10/24 11:24:54;;;;;;;9.07;6.43;;;9.40;99.90;;;;;;5111469;28;20537;-73
2021/10/24 11:27:31;;;;;;;9.43;7.07;;;9.40;99.90;;;;;;5111964;28;20040;-74
2021/10/24 11:30:01;;;;;;;9.95;6.65;;;9.50;99.90;;;;;;5111758;28;20048;-74
2021/10/24 11:32:38;;;;;;;6.43;5.65;;;9.60;99.90;;;;;;5112060;28;20040;-74
2021/10/24 11:35:14;;;;;;;9.18;6.47;;;9.70;99.90;;;;;;5111420;28;20047;-74
2021/10/24 11:37:58;;;;;;;12.15;6.80;;;9.80;99.90;;;;;;5113330;28;20379;-74
2021/10/24 11:40:40;;;;;;;8.13;5.85;;;9.90;99.90;;;;;;5109405;28;20047;-74
2021/10/24 11:43:17;;;;;;;6.70;5.78;;;9.90;99.90;;;;;;5090559;28;20048;-74
2021/10/24 11:45:57;;;;;;;6.57;5.38;;;10.00;99.90;;;;;;5089689;28;20055;-74
2021/10/24 11:48:32;;;;;;;8.40;6.15;;;10.10;99.90;;;;;;5095703;28;20031;-74
2021/10/24 11:51:12;;;;;;;10.13;6.18;;;10.20;99.90;;;;;;5112502;28;20047;-74
2021/10/24 11:53:47;;;;;;;6.43;5.70;;;10.20;99.90;;;;;;5112893;28;20039;-74
2021/10/24 11:59:19;;;;;;;10.68;7.13;;;10.40;99.90;;;;;;5111409;28;20525;-74
2021/10/24 12:01:46;;;;;;;12.93;5.60;;;10.50;99.90;;;;;;5107710;28;20048;-74
2021/10/24 12:04:17;;;;;;;8.98;6.72;;;10.60;99.90;;;;;;5111018;27;20525;-74
2021/10/24 12:06:59;;;;;;;7.55;5.65;;;10.70;99.90;;;;;;5122974;27;20047;-75
2021/10/24 12:09:50;;;;;;;7.82;6.32;;;10.80;99.90;;;;;;5092005;28;20517;-74
2021/10/24 12:12:23;;;;;;;13.40;7.60;;;10.90;99.90;;;;;;5090315;28;20040;-74
2021/10/24 12:15:05;;;;;;;7.90;5.43;;;11.00;99.90;;;;;;5073635;28;20056;-74
2021/10/24 12:17:38;;;;;;;9.45;5.45;;;11.00;99.90;;;;;;5090342;28;20039;-75
2021/10/24 12:20:11;;;;;;;6.22;4.93;;;11.10;99.90;;;;;;5090706;28;20101;-74
2021/10/24 12:22:45;;;;;;;9.93;6.95;;;11.10;99.90;;;;;;5090651;28;20051;-74
2021/10/24 12:25:34;;;;;;;7.70;5.28;;;11.20;99.90;;;;;;5090024;28;20048;-74
2021/10/24 12:28:19;;;;;;;8.35;5.22;;;11.30;99.90;;;;;;5079043;27;20054;-75
2021/10/24 12:31:02;;;;;;;7.47;5.60;;;11.40;99.90;;;;;;5112319;27;20425;-74
2021/10/24 12:33:39;;;;;;;8.10;5.30;;;11.50;99.90;;;;;;5126551;27;20031;-74
2021/10/24 12:36:12;;;;;;;7.20;5.53;;;11.60;99.90;;;;;;5130966;27;20027;-74
2021/10/24 12:38:55;;;;;;;7.35;5.53;;;11.70;99.90;;;;;;5132519;27;20050;-74
2021/10/24 12:41:44;;;;;;;8.27;6.65;;;11.90;99.90;;;;;;5131271;27;20043;-74
2021/10/24 12:44:17;;;;;;;7.13;5.78;;;11.90;99.90;;;;;;5096368;28;20052;-74
2021/10/24 12:46:52;;;;;;;6.85;5.32;;;12.00;99.90;;;;;;5111583;27;20042;-74
2021/10/24 12:49:20;;;;;;;7.45;5.53;;;12.10;99.90;;;;;;5110455;28;20054;-75
2021/10/24 12:52:07;;;;;;;7.43;5.40;;;12.20;99.90;;;;;;5111334;28;20036;-74
2021/10/24 12:54:40;;;;;;;5.35;4.43;;;12.30;99.90;;;;;;5110108;28;20050;-74
2021/10/24 12:57:12;;;;;;;5.88;4.05;;;12.30;99.90;;;;;;5109093;28;20040;-74
2021/10/24 12:59:44;;;;;;;5.72;4.28;;;12.40;99.90;;;;;;5115663;27;20405;-73
2021/10/24 13:02:16;;;;;;;7.97;5.65;;;12.40;99.90;;;;;;5130846;27;20118;-73
2021/10/24 13:04:44;;;;;;;7.00;4.78;;;12.50;99.90;;;;;;5130433;27;20088;-73
2021/10/24 13:07:17;;;;;;;9.23;4.85;;;12.50;99.90;;;;;;5130922;27;20047;-73
2021/10/24 13:09:48;;;;;;;10.30;5.50;;;12.50;99.90;;;;;;5132390;27;20092;-74
2021/10/24 13:12:20;;;;;;;5.75;4.97;;;12.60;99.90;;;;;;5130577;28;20738;-73
2021/10/24 13:14:48;;;;;;;6.55;5.18;;;12.60;99.90;;;;;;5130490;28;20050;-73
2021/10/24 13:17:19;;;;;;;6.93;4.88;;;12.70;99.90;;;;;;5117258;28;20035;-73
2021/10/24 13:19:53;;;;;;;5.40;4.65;;;12.70;99.90;;;;;;5111488;28;20085;-75
2021/10/24 13:25:10;;;;;;;10.73;6.03;;;12.80;99.90;;;;;;5124196;28;20039;-73
2021/10/24 13:27:42;;;;;;;11.07;6.95;;;12.80;99.90;;;;;;5131876;28;20045;-74
2021/10/24 13:30:09;;;;;;;10.02;5.35;;;12.80;99.90;;;;;;5125440;28;20494;-73
2021/10/24 13:32:41;;;;;;;6.97;4.72;;;12.80;99.90;;;;;;5110504;28;20054;-73
2021/10/24 13:35:08;;;;;;;4.30;3.78;;;12.90;99.90;;;;;;5093352;28;20113;-73
2021/10/24 13:37:40;;;;;;;6.50;4.50;;;12.90;99.90;;;;;;5111979;28;20375;-73
2021/10/24 13:40:13;;;;;;;7.45;4.93;;;13.00;99.90;;;;;;5107938;28;20454;-73